createdAt,value
2017-05-15T00:00:18.615Z,0
2017-05-15T00:01:29.617Z,0
2017-05-15T00:02:40.830Z,0
2017-05-15T00:03:52.099Z,0
2017-05-15T00:05:03.519Z,0
2017-05-15T00:06:14.724Z,0
2017-05-15T00:07:25.720Z,0
2017-05-15T00:08:36.942Z,0
2017-05-15T00:09:47.955Z,0
2017-05-15T00:10:59.163Z,0
2017-05-15T00:12:10.210Z,0
2017-05-15T00:13:21.412Z,0
2017-05-15T00:14:32.468Z,0
2017-05-15T00:15:43.473Z,0
2017-05-15T00:16:54.478Z,0
2017-05-15T00:18:05.486Z,0
2017-05-15T00:19:16.508Z,0
2017-05-15T00:20:27.513Z,0
2017-05-15T00:21:38.504Z,0
2017-05-15T00:22:49.516Z,0
2017-05-15T00:24:00.530Z,0
2017-05-15T00:25:11.583Z,0
2017-05-15T00:26:22.602Z,0
2017-05-15T00:27:33.616Z,0
2017-05-15T00:28:44.612Z,0
2017-05-15T00:29:55.623Z,0
2017-05-15T00:31:06.631Z,0
2017-05-15T00:32:17.640Z,0
2017-05-15T00:33:28.644Z,0
2017-05-15T00:34:39.913Z,0
2017-05-15T00:35:50.931Z,0
2017-05-15T00:37:01.938Z,0
2017-05-15T00:38:13.345Z,0
2017-05-15T00:39:24.361Z,0
2017-05-15T00:40:35.377Z,0
2017-05-15T00:41:46.379Z,0
2017-05-15T00:42:57.437Z,0
2017-05-15T00:44:08.449Z,0
2017-05-15T00:45:19.506Z,0
2017-05-15T00:46:30.528Z,0
2017-05-15T00:47:41.546Z,0
2017-05-15T00:48:52.555Z,0
2017-05-15T00:50:03.572Z,0
2017-05-15T00:51:14.580Z,0
2017-05-15T00:52:25.586Z,0
2017-05-15T00:53:36.592Z,0
2017-05-15T00:54:47.619Z,0
2017-05-15T00:55:58.673Z,0
2017-05-15T00:57:09.682Z,0
2017-05-15T00:58:20.693Z,0
2017-05-15T00:59:31.698Z,0
2017-05-15T01:00:42.705Z,0
2017-05-15T01:01:53.721Z,0
2017-05-15T01:03:04.753Z,0
2017-05-15T01:04:15.764Z,0
2017-05-15T01:05:26.773Z,0
2017-05-15T01:06:37.769Z,0
2017-05-15T01:07:48.982Z,0
2017-05-15T01:08:59.990Z,0
2017-05-15T01:10:11.000Z,0
2017-05-15T01:11:22.011Z,0
2017-05-15T01:12:33.265Z,0
2017-05-15T01:13:44.275Z,0
2017-05-15T01:14:55.283Z,0
2017-05-15T01:16:06.300Z,0
2017-05-15T01:17:17.513Z,0
2017-05-15T01:18:28.540Z,0
2017-05-15T01:19:39.758Z,0
2017-05-15T01:20:50.770Z,0
2017-05-15T01:22:02.012Z,0
2017-05-15T01:23:13.076Z,0
2017-05-15T01:24:24.088Z,0
2017-05-15T01:25:35.093Z,0
2017-05-15T01:26:46.296Z,0
2017-05-15T01:27:57.311Z,0
2017-05-15T01:29:08.337Z,0
2017-05-15T01:30:19.336Z,0
2017-05-15T01:31:30.537Z,0
2017-05-15T01:32:41.785Z,0
2017-05-15T01:33:53.032Z,0
2017-05-15T01:35:04.055Z,0
2017-05-15T01:36:15.064Z,0
2017-05-15T01:37:26.087Z,0
2017-05-15T01:38:37.101Z,0
2017-05-15T01:39:48.110Z,0
2017-05-15T01:40:59.119Z,0
2017-05-15T01:42:10.125Z,0
2017-05-15T01:43:21.128Z,0
2017-05-15T01:44:32.185Z,0
2017-05-15T01:45:43.192Z,0
2017-05-15T01:46:54.208Z,0
2017-05-15T01:48:05.222Z,0
2017-05-15T01:49:16.242Z,0
2017-05-15T01:50:27.248Z,0
2017-05-15T01:51:38.252Z,0
2017-05-15T01:52:49.268Z,0
2017-05-15T01:54:00.270Z,0
2017-05-15T01:55:11.374Z,0
2017-05-15T01:56:22.589Z,0
2017-05-15T01:57:33.597Z,0
2017-05-15T01:58:44.612Z,0
2017-05-15T01:59:55.610Z,0
2017-05-15T02:01:06.622Z,0
2017-05-15T02:02:17.830Z,0
2017-05-15T02:03:28.841Z,0
2017-05-15T02:04:39.856Z,0
2017-05-15T02:05:50.904Z,0
2017-05-15T02:07:01.913Z,0
2017-05-15T02:08:12.930Z,0
2017-05-15T02:09:24.149Z,0
2017-05-15T02:10:35.212Z,0
2017-05-15T02:11:46.215Z,0
2017-05-15T02:12:57.215Z,0
2017-05-15T02:14:08.620Z,0
2017-05-15T02:15:19.834Z,0
2017-05-15T02:16:30.901Z,0
2017-05-15T02:17:41.920Z,0
2017-05-15T02:18:52.935Z,0
2017-05-15T02:20:03.951Z,0
2017-05-15T02:21:14.950Z,0
2017-05-15T02:22:26.020Z,0
2017-05-15T02:23:37.029Z,0
2017-05-15T02:24:48.241Z,0
2017-05-15T02:25:59.242Z,0
2017-05-15T02:27:10.306Z,0
2017-05-15T02:28:21.516Z,0
2017-05-15T02:29:32.526Z,0
2017-05-15T02:30:43.522Z,0
2017-05-15T02:31:54.922Z,0
2017-05-15T02:33:05.949Z,0
2017-05-15T02:34:16.975Z,0
2017-05-15T02:35:27.986Z,0
2017-05-15T02:36:38.989Z,0
2017-05-15T02:37:50.037Z,0
2017-05-15T02:39:01.051Z,0
2017-05-15T02:40:12.051Z,0
2017-05-15T02:41:23.259Z,0
2017-05-15T02:42:34.252Z,0
2017-05-15T02:43:45.270Z,0
2017-05-15T02:44:56.278Z,0
2017-05-15T02:46:07.291Z,0
2017-05-15T02:47:18.298Z,0
2017-05-15T02:48:29.351Z,0
2017-05-15T02:49:40.357Z,0
2017-05-15T02:50:51.372Z,0
2017-05-15T02:52:02.374Z,0
2017-05-15T02:53:13.384Z,0
2017-05-15T02:54:24.396Z,0
2017-05-15T02:55:35.600Z,0
2017-05-15T02:56:46.608Z,0
2017-05-15T02:57:57.610Z,0
2017-05-15T02:59:08.678Z,0
2017-05-15T03:00:19.896Z,0
2017-05-15T03:01:30.916Z,0
2017-05-15T03:02:41.920Z,0
2017-05-15T03:03:52.937Z,0
2017-05-15T03:05:03.950Z,0
2017-05-15T03:06:15.172Z,0
2017-05-15T03:07:26.176Z,0
2017-05-15T03:08:37.191Z,0
2017-05-15T03:09:48.444Z,0
2017-05-15T03:10:59.454Z,0
2017-05-15T03:12:10.663Z,0
2017-05-15T03:13:21.665Z,0
2017-05-15T03:14:32.683Z,0
2017-05-15T03:15:43.948Z,0
2017-05-15T03:16:55.159Z,0
2017-05-15T03:18:06.176Z,0
2017-05-15T03:19:17.189Z,0
2017-05-15T03:20:28.185Z,0
2017-05-15T03:21:39.197Z,0
2017-05-15T03:22:50.216Z,0
2017-05-15T03:24:01.269Z,0
2017-05-15T03:25:12.282Z,0
2017-05-15T03:26:23.538Z,0
2017-05-15T03:27:34.757Z,5
2017-05-15T03:28:45.772Z,5
2017-05-15T03:29:56.978Z,5
2017-05-15T03:31:07.987Z,5
2017-05-15T03:32:18.984Z,5
2017-05-15T03:33:29.995Z,5
2017-05-15T03:34:41.216Z,5
2017-05-15T03:35:52.226Z,10
2017-05-15T03:37:03.288Z,10
2017-05-15T03:38:14.496Z,10
2017-05-15T03:39:25.721Z,10
2017-05-15T03:40:36.733Z,10
2017-05-15T03:41:47.736Z,15
2017-05-15T03:42:58.752Z,15
2017-05-15T03:44:09.754Z,15
2017-05-15T03:45:20.767Z,15
2017-05-15T03:46:31.766Z,20
2017-05-15T03:47:42.833Z,20
2017-05-15T03:48:53.853Z,20
2017-05-15T03:50:05.068Z,20
2017-05-15T03:51:16.069Z,25
2017-05-15T03:52:27.081Z,25
2017-05-15T03:53:38.091Z,30
2017-05-15T03:54:49.108Z,30
2017-05-15T03:56:00.130Z,30
2017-05-15T03:57:11.330Z,35
2017-05-15T03:58:22.791Z,35
2017-05-15T03:59:33.812Z,40
2017-05-15T04:00:44.837Z,40
2017-05-15T04:01:55.842Z,45
2017-05-15T04:03:06.843Z,45
2017-05-15T04:04:17.846Z,50
2017-05-15T04:05:28.868Z,55
2017-05-15T04:06:39.889Z,55
2017-05-15T04:07:51.096Z,60
2017-05-15T04:09:02.156Z,60
2017-05-15T04:10:13.172Z,60
2017-05-15T04:11:24.174Z,65
2017-05-15T04:12:35.173Z,95
2017-05-15T04:13:46.190Z,105
2017-05-15T04:14:57.415Z,100
2017-05-15T04:16:08.415Z,125
2017-05-15T04:17:19.419Z,140
2017-05-15T04:18:30.439Z,105
2017-05-15T04:19:41.497Z,145
2017-05-15T04:20:52.509Z,220
2017-05-15T04:22:03.508Z,260
2017-05-15T04:23:14.732Z,350
2017-05-15T04:24:25.742Z,405
2017-05-15T04:25:36.744Z,425
2017-05-15T04:26:47.743Z,450
2017-05-15T04:27:58.752Z,455
2017-05-15T04:29:09.763Z,470
2017-05-15T04:30:20.770Z,485
2017-05-15T04:31:31.781Z,455
2017-05-15T04:32:42.787Z,330
2017-05-15T04:33:54.208Z,345
2017-05-15T04:35:05.222Z,305
2017-05-15T04:36:16.277Z,380
2017-05-15T04:37:27.294Z,595
2017-05-15T04:38:38.503Z,615
2017-05-15T04:39:49.513Z,640
2017-05-15T04:41:00.728Z,635
2017-05-15T04:42:11.730Z,600
2017-05-15T04:43:22.947Z,555
2017-05-15T04:44:33.988Z,395
2017-05-15T04:45:45.194Z,575
2017-05-15T04:46:56.275Z,595
2017-05-15T04:48:07.285Z,550
2017-05-15T04:49:18.308Z,445
2017-05-15T04:50:29.516Z,505
2017-05-15T04:51:40.526Z,675
2017-05-15T04:52:51.748Z,760
2017-05-15T04:54:02.768Z,850
2017-05-15T04:55:13.980Z,830
2017-05-15T04:56:24.990Z,850
2017-05-15T04:57:36.056Z,800
2017-05-15T04:58:47.269Z,915
2017-05-15T04:59:58.285Z,905
2017-05-15T05:01:09.498Z,580
2017-05-15T05:02:20.712Z,465
2017-05-15T05:03:31.774Z,525
2017-05-15T05:04:42.803Z,530
2017-05-15T05:05:53.804Z,635
2017-05-15T05:07:04.829Z,690
2017-05-15T05:08:15.880Z,645
2017-05-15T05:09:26.891Z,550
2017-05-15T05:10:37.899Z,540
2017-05-15T05:11:48.910Z,680
2017-05-15T05:12:59.924Z,960
2017-05-15T05:14:10.944Z,1240
2017-05-15T05:15:22.165Z,1260
2017-05-15T05:16:33.177Z,1240
2017-05-15T05:17:44.389Z,1225
2017-05-15T05:18:55.466Z,1030
2017-05-15T05:20:06.481Z,805
2017-05-15T05:21:17.494Z,690
2017-05-15T05:22:28.698Z,550
2017-05-15T05:23:39.909Z,205
2017-05-15T05:24:51.141Z,200
2017-05-15T05:26:02.162Z,245
2017-05-15T05:27:13.177Z,245
2017-05-15T05:28:24.207Z,195
2017-05-15T05:29:35.413Z,200
2017-05-15T05:30:46.416Z,210
2017-05-15T05:31:57.433Z,255
2017-05-15T05:33:08.449Z,275
2017-05-15T05:34:19.473Z,340
2017-05-15T05:35:30.490Z,295
2017-05-15T05:36:41.495Z,305
2017-05-15T05:37:52.711Z,345
2017-05-15T05:39:03.726Z,465
2017-05-15T05:40:14.997Z,285
2017-05-15T05:41:26.004Z,250
2017-05-15T05:42:37.020Z,255
2017-05-15T05:43:48.234Z,230
2017-05-15T05:44:59.248Z,260
2017-05-15T05:46:10.255Z,310
2017-05-15T05:47:21.483Z,315
2017-05-15T05:48:32.701Z,270
2017-05-15T05:49:43.719Z,265
2017-05-15T05:50:54.773Z,415
2017-05-15T05:52:05.791Z,510
2017-05-15T05:53:16.781Z,330
2017-05-15T05:54:27.997Z,290
2017-05-15T05:55:39.018Z,465
2017-05-15T05:56:50.027Z,850
2017-05-15T05:58:01.038Z,955
2017-05-15T05:59:12.059Z,850
2017-05-15T06:00:23.288Z,1190
2017-05-15T06:01:34.353Z,1115
2017-05-15T06:02:45.403Z,1515
2017-05-15T06:03:56.622Z,1695
2017-05-15T06:05:07.636Z,1775
2017-05-15T06:06:18.909Z,1820
2017-05-15T06:07:30.121Z,1850
2017-05-15T06:08:41.346Z,1880
2017-05-15T06:09:52.351Z,1795
2017-05-15T06:11:03.371Z,1895
2017-05-15T06:12:14.659Z,1885
2017-05-15T06:13:26.083Z,1820
2017-05-15T06:14:37.094Z,1880
2017-05-15T06:15:48.121Z,1865
2017-05-15T06:16:59.140Z,1870
2017-05-15T06:18:10.159Z,2010
2017-05-15T06:19:21.209Z,2045
2017-05-15T06:20:32.434Z,2045
2017-05-15T06:21:43.456Z,2030
2017-05-15T06:22:54.534Z,2005
2017-05-15T06:24:05.566Z,1970
2017-05-15T06:25:16.603Z,1990
2017-05-15T06:26:27.637Z,2090
2017-05-15T06:27:38.862Z,2110
2017-05-15T06:28:49.886Z,2095
2017-05-15T06:30:01.113Z,2120
2017-05-15T06:31:12.328Z,2165
2017-05-15T06:32:23.344Z,2125
2017-05-15T06:33:34.363Z,2010
2017-05-15T06:34:45.390Z,2070
2017-05-15T06:35:56.400Z,2070
2017-05-15T06:37:07.630Z,2115
2017-05-15T06:38:18.644Z,2240
2017-05-15T06:39:29.719Z,2145
2017-05-15T06:40:40.746Z,2145
2017-05-15T06:41:51.979Z,2120
2017-05-15T06:43:03.414Z,2065
2017-05-15T06:44:14.451Z,2240
2017-05-15T06:45:25.497Z,2175
2017-05-15T06:46:36.540Z,2250
2017-05-15T06:47:47.555Z,2205
2017-05-15T06:48:58.583Z,2080
2017-05-15T06:50:09.658Z,2040
2017-05-15T06:51:20.672Z,2170
2017-05-15T06:52:31.686Z,2200
2017-05-15T06:53:42.911Z,2270
2017-05-15T06:54:53.952Z,2195
2017-05-15T06:56:05.180Z,2135
2017-05-15T06:57:16.213Z,2325
2017-05-15T06:58:27.279Z,2300
2017-05-15T06:59:38.307Z,2320
2017-05-15T07:00:49.387Z,2225
2017-05-15T07:02:00.415Z,2345
2017-05-15T07:03:11.427Z,2315
2017-05-15T07:04:22.651Z,2305
2017-05-15T07:05:33.686Z,2305
2017-05-15T07:06:44.719Z,2400
2017-05-15T07:07:55.948Z,2440
2017-05-15T07:09:06.979Z,2365
2017-05-15T07:10:18.003Z,2430
2017-05-15T07:11:29.084Z,2305
2017-05-15T07:12:40.117Z,2360
2017-05-15T07:13:51.151Z,2330
2017-05-15T07:15:02.176Z,2295
2017-05-15T07:16:13.186Z,2415
2017-05-15T07:17:24.214Z,2420
2017-05-15T07:18:35.256Z,2465
2017-05-15T07:19:46.276Z,2505
2017-05-15T07:20:57.299Z,2475
2017-05-15T07:22:08.384Z,2475
2017-05-15T07:23:19.403Z,2475
2017-05-15T07:24:30.437Z,2515
2017-05-15T07:25:41.670Z,2440
2017-05-15T07:26:52.695Z,2330
2017-05-15T07:28:03.718Z,2355
2017-05-15T07:29:14.740Z,2400
2017-05-15T07:30:25.768Z,2495
2017-05-15T07:31:36.798Z,2360
2017-05-15T07:32:48.080Z,2570
2017-05-15T07:33:59.110Z,2450
2017-05-15T07:35:10.146Z,2375
2017-05-15T07:36:21.185Z,2410
2017-05-15T07:37:32.215Z,2475
2017-05-15T07:38:43.450Z,2525
2017-05-15T07:39:54.669Z,2445
2017-05-15T07:41:05.695Z,2390
2017-05-15T07:42:16.731Z,2400
2017-05-15T07:43:27.812Z,2450
2017-05-15T07:44:38.842Z,2335
2017-05-15T07:45:49.883Z,2405
2017-05-15T07:47:00.920Z,2520
2017-05-15T07:48:11.946Z,2525
2017-05-15T07:49:22.975Z,2650
2017-05-15T07:50:33.996Z,2560
2017-05-15T07:51:45.226Z,2480
2017-05-15T07:52:56.257Z,2490
2017-05-15T07:54:07.335Z,2370
2017-05-15T07:55:18.369Z,2545
2017-05-15T07:56:29.392Z,2650
2017-05-15T07:57:40.416Z,2615
2017-05-15T07:58:51.701Z,2630
2017-05-15T08:00:02.921Z,2605
2017-05-15T08:01:13.958Z,2455
2017-05-15T08:02:24.993Z,2425
2017-05-15T08:03:36.026Z,2465
2017-05-15T08:04:47.106Z,2520
2017-05-15T08:05:58.138Z,2630
2017-05-15T08:07:09.176Z,2680
2017-05-15T08:08:20.202Z,2605
2017-05-15T08:09:31.435Z,2535
2017-05-15T08:10:42.462Z,2730
2017-05-15T08:11:53.498Z,2650
2017-05-15T08:13:04.575Z,2650
2017-05-15T08:14:15.805Z,2585
2017-05-15T08:15:26.887Z,2570
2017-05-15T08:16:37.952Z,2625
2017-05-15T08:17:48.989Z,2655
2017-05-15T08:19:00.233Z,2590
2017-05-15T08:20:11.254Z,2595
2017-05-15T08:21:22.281Z,2530
2017-05-15T08:22:33.318Z,2525
2017-05-15T08:23:44.545Z,2565
2017-05-15T08:24:55.791Z,2790
2017-05-15T08:26:06.876Z,2775
2017-05-15T08:27:17.894Z,2725
2017-05-15T08:28:28.935Z,2595
2017-05-15T08:29:39.969Z,2560
2017-05-15T08:30:51.053Z,2520
2017-05-15T08:32:02.126Z,2565
2017-05-15T08:33:13.356Z,2545
2017-05-15T08:34:24.392Z,2650
2017-05-15T08:35:35.442Z,2690
2017-05-15T08:36:46.466Z,2550
2017-05-15T08:37:57.490Z,2580
2017-05-15T08:39:08.526Z,2470
2017-05-15T08:40:19.552Z,2525
2017-05-15T08:41:30.574Z,2655
2017-05-15T08:42:41.611Z,2660
2017-05-15T08:43:52.846Z,2670
2017-05-15T08:45:03.870Z,2530
2017-05-15T08:46:14.887Z,2620
2017-05-15T08:47:25.915Z,2640
2017-05-15T08:48:36.992Z,2665
2017-05-15T08:49:48.016Z,2615
2017-05-15T08:50:59.035Z,2555
2017-05-15T08:52:10.081Z,2535
2017-05-15T08:53:21.113Z,2570
2017-05-15T08:54:32.170Z,2595
2017-05-15T08:55:43.197Z,2615
2017-05-15T08:56:54.239Z,2600
2017-05-15T08:58:05.279Z,2640
2017-05-15T08:59:16.360Z,2630
2017-05-15T09:00:27.387Z,2610
2017-05-15T09:01:38.423Z,2485
2017-05-15T09:02:49.456Z,2385
2017-05-15T09:04:00.492Z,2595
2017-05-15T09:05:11.516Z,2630
2017-05-15T09:06:22.532Z,2615
2017-05-15T09:07:33.556Z,2470
2017-05-15T09:08:44.583Z,2460
2017-05-15T09:09:55.674Z,2540
2017-05-15T09:11:06.701Z,2425
2017-05-15T09:12:17.770Z,2110
2017-05-15T09:13:28.790Z,2370
2017-05-15T09:14:39.843Z,2600
2017-05-15T09:15:51.062Z,2585
2017-05-15T09:17:02.090Z,2150
2017-05-15T09:18:13.126Z,1930
2017-05-15T09:19:24.350Z,2460
2017-05-15T09:20:35.389Z,2255
2017-05-15T09:21:46.422Z,2470
2017-05-15T09:22:57.461Z,2565
2017-05-15T09:24:08.494Z,2370
2017-05-15T09:25:19.778Z,2355
2017-05-15T09:26:30.825Z,2185
2017-05-15T09:27:42.062Z,2495
2017-05-15T09:28:53.279Z,2440
2017-05-15T09:30:04.310Z,2290
2017-05-15T09:31:15.343Z,2480
2017-05-15T09:32:26.580Z,2465
2017-05-15T09:33:37.607Z,785
2017-05-15T09:34:48.633Z,2200
2017-05-15T09:35:59.714Z,2100
2017-05-15T09:37:10.752Z,2450
2017-05-15T09:38:21.826Z,2260
2017-05-15T09:39:33.067Z,2315
2017-05-15T09:40:44.353Z,2360
2017-05-15T09:41:55.390Z,2460
2017-05-15T09:43:06.623Z,2450
2017-05-15T09:44:17.656Z,2265
2017-05-15T09:45:28.884Z,2325
2017-05-15T09:46:40.314Z,2250
2017-05-15T09:47:51.358Z,2340
2017-05-15T09:49:02.385Z,2125
2017-05-15T09:50:13.418Z,2185
2017-05-15T09:51:24.441Z,2265
2017-05-15T09:52:35.515Z,2255
2017-05-15T09:53:46.552Z,2310
2017-05-15T09:54:57.585Z,2340
2017-05-15T09:56:08.813Z,2040
2017-05-15T09:57:19.850Z,2150
2017-05-15T09:58:30.880Z,2185
2017-05-15T09:59:41.909Z,2225
2017-05-15T10:00:52.936Z,770
2017-05-15T10:02:04.010Z,1035
2017-05-15T10:03:15.288Z,2350
2017-05-15T10:04:26.320Z,1015
2017-05-15T10:05:37.351Z,2220
2017-05-15T10:06:48.582Z,2170
2017-05-15T10:07:59.807Z,2085
2017-05-15T10:09:10.887Z,2150
2017-05-15T10:10:22.111Z,2140
2017-05-15T10:11:33.337Z,2145
2017-05-15T10:12:44.363Z,2195
2017-05-15T10:13:55.457Z,2240
2017-05-15T10:15:06.486Z,2345
2017-05-15T10:16:17.519Z,2305
2017-05-15T10:17:28.752Z,2285
2017-05-15T10:18:39.974Z,2290
2017-05-15T10:19:51.007Z,2300
2017-05-15T10:21:02.047Z,2230
2017-05-15T10:22:13.066Z,2240
2017-05-15T10:23:24.544Z,2210
2017-05-15T10:24:35.619Z,2190
2017-05-15T10:25:46.647Z,2200
2017-05-15T10:26:57.878Z,1935
2017-05-15T10:28:08.916Z,2000
2017-05-15T10:29:19.949Z,1010
2017-05-15T10:30:30.977Z,510
2017-05-15T10:31:42.012Z,560
2017-05-15T10:32:53.044Z,3100
2017-05-15T10:34:04.086Z,2600
2017-05-15T10:35:15.158Z,1850
2017-05-15T10:36:26.188Z,1220
2017-05-15T10:37:37.424Z,990
2017-05-15T10:38:48.462Z,965
2017-05-15T10:39:59.490Z,970
2017-05-15T10:41:10.560Z,975
2017-05-15T10:42:21.593Z,970
2017-05-15T10:43:32.831Z,1015
2017-05-15T10:44:44.066Z,1065
2017-05-15T10:45:55.086Z,1095
2017-05-15T10:47:06.116Z,740
2017-05-15T10:48:17.199Z,1100
2017-05-15T10:49:28.238Z,845
2017-05-15T10:50:39.469Z,475
2017-05-15T10:51:50.502Z,465
2017-05-15T10:53:01.722Z,465
2017-05-15T10:54:12.765Z,500
2017-05-15T10:55:23.791Z,1000
2017-05-15T10:56:34.819Z,1750
2017-05-15T10:57:45.890Z,1740
2017-05-15T10:58:56.928Z,1795
2017-05-15T11:00:07.940Z,1880
2017-05-15T11:01:19.163Z,1865
2017-05-15T11:02:30.184Z,1795
2017-05-15T11:03:41.216Z,1750
2017-05-15T11:04:52.452Z,1790
2017-05-15T11:06:03.474Z,1785
2017-05-15T11:07:14.507Z,1710
2017-05-15T11:08:25.589Z,1740
2017-05-15T11:09:36.606Z,1660
2017-05-15T11:10:47.624Z,1415
2017-05-15T11:11:58.649Z,1525
2017-05-15T11:13:09.898Z,1570
2017-05-15T11:14:21.120Z,1565
2017-05-15T11:15:32.160Z,1545
2017-05-15T11:16:43.195Z,1560
2017-05-15T11:17:54.229Z,1540
2017-05-15T11:19:05.313Z,1485
2017-05-15T11:20:16.334Z,1470
2017-05-15T11:21:27.549Z,1395
2017-05-15T11:22:38.767Z,1440
2017-05-15T11:23:49.790Z,1435
2017-05-15T11:25:00.833Z,1430
2017-05-15T11:26:11.895Z,1400
2017-05-15T11:27:22.920Z,1390
2017-05-15T11:28:33.950Z,1360
2017-05-15T11:29:45.017Z,1320
2017-05-15T11:30:56.041Z,1325
2017-05-15T11:32:07.064Z,1305
2017-05-15T11:33:18.097Z,1290
2017-05-15T11:34:29.119Z,1255
2017-05-15T11:35:40.129Z,1270
2017-05-15T11:36:51.156Z,1270
2017-05-15T11:38:02.185Z,1215
2017-05-15T11:39:13.203Z,1175
2017-05-15T11:40:24.233Z,1140
2017-05-15T11:41:35.260Z,1115
2017-05-15T11:42:46.295Z,1120
2017-05-15T11:43:57.323Z,1090
2017-05-15T11:45:08.363Z,1070
2017-05-15T11:46:19.831Z,1045
2017-05-15T11:47:30.873Z,1050
2017-05-15T11:48:41.912Z,1055
2017-05-15T11:49:52.934Z,1060
2017-05-15T11:51:04.152Z,1055
2017-05-15T11:52:15.389Z,1040
2017-05-15T11:53:26.646Z,1030
2017-05-15T11:54:37.877Z,1015
2017-05-15T11:55:49.104Z,980
2017-05-15T11:57:00.342Z,945
2017-05-15T11:58:11.364Z,955
2017-05-15T11:59:22.377Z,950
2017-05-15T12:00:33.459Z,930
2017-05-15T12:01:44.488Z,925
2017-05-15T12:02:55.511Z,900
2017-05-15T12:04:06.739Z,890
2017-05-15T12:05:17.766Z,885
2017-05-15T12:06:28.828Z,875
2017-05-15T12:07:39.843Z,855
2017-05-15T12:08:51.059Z,870
2017-05-15T12:10:02.118Z,865
2017-05-15T12:11:13.137Z,855
2017-05-15T12:12:24.207Z,840
2017-05-15T12:13:35.240Z,835
2017-05-15T12:14:46.459Z,810
2017-05-15T12:15:57.483Z,805
2017-05-15T12:17:08.500Z,805
2017-05-15T12:18:19.585Z,810
2017-05-15T12:19:30.605Z,815
2017-05-15T12:20:41.628Z,815
2017-05-15T12:21:52.638Z,820
2017-05-15T12:23:03.883Z,815
2017-05-15T12:24:14.952Z,825
2017-05-15T12:25:25.968Z,820
2017-05-15T12:26:36.980Z,815
2017-05-15T12:27:48.197Z,830
2017-05-15T12:28:59.419Z,825
2017-05-15T12:30:10.696Z,825
2017-05-15T12:31:21.726Z,810
2017-05-15T12:32:32.755Z,815
2017-05-15T12:33:43.974Z,815
2017-05-15T12:34:55.211Z,795
2017-05-15T12:36:06.486Z,790
2017-05-15T12:37:17.506Z,770
2017-05-15T12:38:28.527Z,765
2017-05-15T12:39:39.550Z,760
2017-05-15T12:40:50.774Z,390
2017-05-15T12:42:01.847Z,610
2017-05-15T12:43:13.073Z,345
2017-05-15T12:44:24.286Z,730
2017-05-15T12:45:35.308Z,720
2017-05-15T12:46:46.341Z,715
2017-05-15T12:47:57.420Z,730
2017-05-15T12:49:08.439Z,715
2017-05-15T12:50:19.457Z,700
2017-05-15T12:51:30.503Z,685
2017-05-15T12:52:41.724Z,660
2017-05-15T12:53:53.003Z,645
2017-05-15T12:55:04.037Z,615
2017-05-15T12:56:15.066Z,580
2017-05-15T12:57:26.284Z,555
2017-05-15T12:58:37.307Z,440
2017-05-15T12:59:48.368Z,450
2017-05-15T13:00:59.385Z,370
2017-05-15T13:02:10.434Z,360
2017-05-15T13:03:21.462Z,380
2017-05-15T13:04:32.486Z,360
2017-05-15T13:05:43.552Z,340
2017-05-15T13:06:54.572Z,400
2017-05-15T13:08:05.592Z,400
2017-05-15T13:09:16.614Z,370
2017-05-15T13:10:27.635Z,365
2017-05-15T13:11:38.925Z,300
2017-05-15T13:12:50.548Z,310
2017-05-15T13:14:01.576Z,345
2017-05-15T13:15:12.594Z,345
2017-05-15T13:16:23.609Z,300
2017-05-15T13:17:34.675Z,290
2017-05-15T13:18:45.702Z,320
2017-05-15T13:19:56.716Z,470
2017-05-15T13:21:07.735Z,490
2017-05-15T13:22:18.762Z,490
2017-05-15T13:23:29.826Z,480
2017-05-15T13:24:40.842Z,475
2017-05-15T13:25:51.857Z,475
2017-05-15T13:27:02.881Z,460
2017-05-15T13:28:13.905Z,455
2017-05-15T13:29:25.165Z,435
2017-05-15T13:30:36.188Z,285
2017-05-15T13:31:47.210Z,260
2017-05-15T13:32:58.236Z,250
2017-05-15T13:34:09.458Z,355
2017-05-15T13:35:20.529Z,365
2017-05-15T13:36:31.747Z,440
2017-05-15T13:37:42.772Z,265
2017-05-15T13:38:53.793Z,260
2017-05-15T13:40:04.819Z,260
2017-05-15T13:41:15.899Z,345
2017-05-15T13:42:26.908Z,460
2017-05-15T13:43:37.910Z,435
2017-05-15T13:44:48.934Z,285
2017-05-15T13:45:59.952Z,285
2017-05-15T13:47:11.018Z,360
2017-05-15T13:48:22.052Z,465
2017-05-15T13:49:33.276Z,475
2017-05-15T13:50:44.280Z,490
2017-05-15T13:51:55.503Z,565
2017-05-15T13:53:06.590Z,590
2017-05-15T13:54:17.607Z,560
2017-05-15T13:55:28.683Z,560
2017-05-15T13:56:39.710Z,540
2017-05-15T13:57:50.718Z,545
2017-05-15T13:59:01.804Z,565
2017-05-15T14:00:13.022Z,600
2017-05-15T14:01:24.255Z,550
2017-05-15T14:02:35.271Z,530
2017-05-15T14:03:46.290Z,530
2017-05-15T14:04:57.380Z,530
2017-05-15T14:06:08.403Z,535
2017-05-15T14:07:19.421Z,550
2017-05-15T14:08:30.845Z,520
2017-05-15T14:09:41.867Z,505
2017-05-15T14:10:52.887Z,515
2017-05-15T14:12:04.134Z,520
2017-05-15T14:13:15.158Z,535
2017-05-15T14:14:26.176Z,530
2017-05-15T14:15:37.232Z,505
2017-05-15T14:16:48.245Z,490
2017-05-15T14:17:59.279Z,510
2017-05-15T14:19:10.506Z,210
2017-05-15T14:20:21.522Z,220
2017-05-15T14:21:32.804Z,430
2017-05-15T14:22:43.838Z,220
2017-05-15T14:23:54.848Z,315
2017-05-15T14:25:05.874Z,425
2017-05-15T14:26:16.897Z,390
2017-05-15T14:27:27.976Z,335
2017-05-15T14:28:38.986Z,315
2017-05-15T14:29:50.015Z,310
2017-05-15T14:31:01.027Z,310
2017-05-15T14:32:12.036Z,280
2017-05-15T14:33:23.120Z,300
2017-05-15T14:34:34.131Z,295
2017-05-15T14:35:45.152Z,260
2017-05-15T14:36:56.171Z,200
2017-05-15T14:38:07.192Z,285
2017-05-15T14:39:18.255Z,300
2017-05-15T14:40:29.279Z,305
2017-05-15T14:41:40.289Z,300
2017-05-15T14:42:51.302Z,305
2017-05-15T14:44:02.309Z,280
2017-05-15T14:45:13.380Z,275
2017-05-15T14:46:24.394Z,270
2017-05-15T14:47:35.408Z,270
2017-05-15T14:48:46.427Z,265
2017-05-15T14:49:57.446Z,270
2017-05-15T14:51:08.468Z,265
2017-05-15T14:52:19.537Z,260
2017-05-15T14:53:30.757Z,265
2017-05-15T14:54:41.768Z,260
2017-05-15T14:55:52.839Z,255
2017-05-15T14:57:03.843Z,215
2017-05-15T14:58:14.852Z,245
2017-05-15T14:59:26.080Z,250
2017-05-15T15:00:37.307Z,240
2017-05-15T15:01:48.375Z,225
2017-05-15T15:02:59.413Z,235
2017-05-15T15:04:10.637Z,245
2017-05-15T15:05:21.648Z,250
2017-05-15T15:06:32.669Z,255
2017-05-15T15:07:43.772Z,255
2017-05-15T15:08:54.831Z,255
2017-05-15T15:10:05.859Z,250
2017-05-15T15:11:16.867Z,245
2017-05-15T15:12:27.880Z,250
2017-05-15T15:13:38.900Z,245
2017-05-15T15:14:50.304Z,250
2017-05-15T15:16:01.535Z,255
2017-05-15T15:17:12.557Z,265
2017-05-15T15:18:23.628Z,260
2017-05-15T15:19:34.844Z,265
2017-05-15T15:20:45.868Z,260
2017-05-15T15:21:57.090Z,260
2017-05-15T15:23:08.100Z,265
2017-05-15T15:24:19.216Z,250
2017-05-15T15:25:30.249Z,240
2017-05-15T15:26:41.267Z,230
2017-05-15T15:27:52.287Z,225
2017-05-15T15:29:03.507Z,215
2017-05-15T15:30:14.526Z,215
2017-05-15T15:31:25.543Z,210
2017-05-15T15:32:36.761Z,210
2017-05-15T15:33:47.784Z,205
2017-05-15T15:34:59.215Z,205
2017-05-15T15:36:10.283Z,200
2017-05-15T15:37:21.511Z,200
2017-05-15T15:38:32.727Z,205
2017-05-15T15:39:43.747Z,200
2017-05-15T15:40:54.770Z,200
2017-05-15T15:42:05.847Z,200
2017-05-15T15:43:16.875Z,195
2017-05-15T15:44:27.895Z,195
2017-05-15T15:45:38.918Z,200
2017-05-15T15:46:50.191Z,200
2017-05-15T15:48:01.273Z,205
2017-05-15T15:49:12.297Z,200
2017-05-15T15:50:23.365Z,200
2017-05-15T15:51:34.443Z,200
2017-05-15T15:52:45.469Z,200
2017-05-15T15:53:56.541Z,195
2017-05-15T15:55:07.559Z,200
2017-05-15T15:56:18.775Z,200
2017-05-15T15:57:29.785Z,200
2017-05-15T15:58:40.809Z,195
2017-05-15T15:59:51.882Z,185
2017-05-15T16:01:02.894Z,190
2017-05-15T16:02:13.911Z,190
2017-05-15T16:03:25.135Z,190
2017-05-15T16:04:36.149Z,195
2017-05-15T16:05:47.226Z,180
2017-05-15T16:06:58.250Z,185
2017-05-15T16:08:09.264Z,190
2017-05-15T16:09:20.286Z,185
2017-05-15T16:10:31.305Z,185
2017-05-15T16:11:42.415Z,195
2017-05-15T16:12:53.620Z,185
2017-05-15T16:14:04.632Z,190
2017-05-15T16:15:15.656Z,185
2017-05-15T16:16:26.881Z,185
2017-05-15T16:17:37.936Z,190
2017-05-15T16:18:49.160Z,190
2017-05-15T16:20:00.166Z,190
2017-05-15T16:21:42.799Z,185
2017-05-15T16:22:53.849Z,185